sensor_id;sensor_type;location;lat;lon;timestamp;P1;durP1;ratioP1;P2;durP2;ratioP2
74293;SDS011;62688;59.904;10.738;2022-09-14T00:00:44;0.20;;;0.20;;
74293;SDS011;62688;59.904;10.738;2022-09-14T00:03:10;0.10;;;0.10;;
74293;SDS011;62688;59.904;10.738;2022-09-14T00:05:36;0.15;;;0.10;;
74293;SDS011;62688;59.904;10.738;2022-09-14T00:08:02;0.20;;;0.10;;
74293;SDS011;62688;59.904;10.738;2022-09-14T00:10:28;1.27;;;0.22;;
74293;SDS011;62688;59.904;10.738;2022-09-14T00:12:54;1.00;;;0.20;;
74293;SDS011;62688;59.904;10.738;2022-09-14T00:15:20;0.52;;;0.10;;
74293;SDS011;62688;59.904;10.738;2022-09-14T00:17:45;0.63;;;0.10;;
74293;SDS011;62688;59.904;10.738;2022-09-14T00:20:11;0.08;;;0.08;;
74293;SDS011;62688;59.904;10.738;2022-09-14T00:22:37;0.08;;;0.08;;
74293;SDS011;62688;59.904;10.738;2022-09-14T00:25:03;0.22;;;0.10;;
74293;SDS011;62688;59.904;10.738;2022-09-14T00:27:29;0.45;;;0.10;;
74293;SDS011;62688;59.904;10.738;2022-09-14T00:29:54;0.32;;;0.05;;
74293;SDS011;62688;59.904;10.738;2022-09-14T00:32:20;0.00;;;0.00;;
74293;SDS011;62688;59.904;10.738;2022-09-14T00:34:45;0.10;;;0.10;;
74293;SDS011;62688;59.904;10.738;2022-09-14T00:37:11;0.13;;;0.10;;
74293;SDS011;62688;59.904;10.738;2022-09-14T00:39:37;0.00;;;0.00;;
74293;SDS011;62688;59.904;10.738;2022-09-14T00:42:03;0.55;;;0.15;;
74293;SDS011;62688;59.904;10.738;2022-09-14T00:46:59;0.10;;;0.10;;
74293;SDS011;62688;59.904;10.738;2022-09-14T00:49:29;0.17;;;0.17;;
74293;SDS011;62688;59.904;10.738;2022-09-14T00:54:33;0.35;;;0.10;;
74293;SDS011;62688;59.904;10.738;2022-09-14T00:57:05;0.10;;;0.10;;
74293;SDS011;62688;59.904;10.738;2022-09-14T00:59:32;0.10;;;0.10;;
74293;SDS011;62688;59.904;10.738;2022-09-14T01:02:00;0.03;;;0.03;;
74293;SDS011;62688;59.904;10.738;2022-09-14T01:04:27;0.28;;;0.10;;
74293;SDS011;62688;59.904;10.738;2022-09-14T01:06:59;0.10;;;0.10;;
74293;SDS011;62688;59.904;10.738;2022-09-14T01:13:17;1.40;;;0.20;;
74293;SDS011;62688;59.904;10.738;2022-09-14T01:18:22;1.20;;;0.28;;
74293;SDS011;62688;59.904;10.738;2022-09-14T01:23:46;0.77;;;0.13;;
74293;SDS011;62688;59.904;10.738;2022-09-14T01:28:58;0.20;;;0.20;;
74293;SDS011;62688;59.904;10.738;2022-09-14T01:33:59;0.40;;;0.40;;
74293;SDS011;62688;59.904;10.738;2022-09-14T01:36:38;0.68;;;0.15;;
74293;SDS011;62688;59.904;10.738;2022-09-14T01:39:08;0.10;;;0.10;;
74293;SDS011;62688;59.904;10.738;2022-09-14T01:41:35;0.75;;;0.20;;
74293;SDS011;62688;59.904;10.738;2022-09-14T01:44:09;0.17;;;0.10;;
74293;SDS011;62688;59.904;10.738;2022-09-14T01:46:40;0.17;;;0.10;;
74293;SDS011;62688;59.904;10.738;2022-09-14T01:49:33;0.75;;;0.20;;
74293;SDS011;62688;59.904;10.738;2022-09-14T01:55:06;0.00;;;0.00;;
74293;SDS011;62688;59.904;10.738;2022-09-14T01:57:39;2.55;;;0.13;;
74293;SDS011;62688;59.904;10.738;2022-09-14T02:00:15;1.30;;;0.30;;
74293;SDS011;62688;59.904;10.738;2022-09-14T02:02:45;0.30;;;0.10;;
74293;SDS011;62688;59.904;10.738;2022-09-14T02:08:06;0.52;;;0.10;;
74293;SDS011;62688;59.904;10.738;2022-09-14T02:10:32;0.60;;;0.15;;
74293;SDS011;62688;59.904;10.738;2022-09-14T02:12:58;0.10;;;0.10;;
74293;SDS011;62688;59.904;10.738;2022-09-14T02:15:24;0.35;;;0.10;;
74293;SDS011;62688;59.904;10.738;2022-09-14T02:17:51;0.88;;;0.15;;
74293;SDS011;62688;59.904;10.738;2022-09-14T02:20:26;0.00;;;0.00;;
74293;SDS011;62688;59.904;10.738;2022-09-14T02:23:02;0.52;;;0.10;;
74293;SDS011;62688;59.904;10.738;2022-09-14T02:25:29;0.10;;;0.10;;
74293;SDS011;62688;59.904;10.738;2022-09-14T02:27:56;0.10;;;0.10;;
74293;SDS011;62688;59.904;10.738;2022-09-14T02:30:21;0.20;;;0.10;;
74293;SDS011;62688;59.904;10.738;2022-09-14T02:32:54;0.47;;;0.15;;
74293;SDS011;62688;59.904;10.738;2022-09-14T02:36:15;0.10;;;0.05;;
74293;SDS011;62688;59.904;10.738;2022-09-14T02:41:31;0.10;;;0.10;;
74293;SDS011;62688;59.904;10.738;2022-09-14T02:49:51;0.20;;;0.05;;
74293;SDS011;62688;59.904;10.738;2022-09-14T02:55:08;0.10;;;0.10;;
74293;SDS011;62688;59.904;10.738;2022-09-14T03:00:33;1.83;;;0.10;;
74293;SDS011;62688;59.904;10.738;2022-09-14T03:03:03;0.80;;;0.20;;
74293;SDS011;62688;59.904;10.738;2022-09-14T03:05:30;0.30;;;0.10;;
74293;SDS011;62688;59.904;10.738;2022-09-14T03:07:57;1.13;;;0.20;;
74293;SDS011;62688;59.904;10.738;2022-09-14T03:10:23;0.20;;;0.08;;
74293;SDS011;62688;59.904;10.738;2022-09-14T03:12:48;1.20;;;0.10;;
74293;SDS011;62688;59.904;10.738;2022-09-14T03:15:14;0.25;;;0.10;;
74293;SDS011;62688;59.904;10.738;2022-09-14T03:17:43;0.10;;;0.10;;
74293;SDS011;62688;59.904;10.738;2022-09-14T03:20:13;0.20;;;0.20;;
74293;SDS011;62688;59.904;10.738;2022-09-14T03:22:40;0.30;;;0.15;;
74293;SDS011;62688;59.904;10.738;2022-09-14T03:25:06;1.10;;;0.20;;
74293;SDS011;62688;59.904;10.738;2022-09-14T03:27:32;0.17;;;0.17;;
74293;SDS011;62688;59.904;10.738;2022-09-14T03:29:58;3.22;;;0.20;;
74293;SDS011;62688;59.904;10.738;2022-09-14T03:32:23;0.10;;;0.10;;
74293;SDS011;62688;59.904;10.738;2022-09-14T03:34:49;1.33;;;0.20;;
74293;SDS011;62688;59.904;10.738;2022-09-14T03:37:15;0.40;;;0.10;;
74293;SDS011;62688;59.904;10.738;2022-09-14T03:39:40;0.20;;;0.20;;
74293;SDS011;62688;59.904;10.738;2022-09-14T03:42:06;0.25;;;0.10;;
74293;SDS011;62688;59.904;10.738;2022-09-14T03:44:32;0.20;;;0.20;;
74293;SDS011;62688;59.904;10.738;2022-09-14T03:46:58;0.47;;;0.40;;
74293;SDS011;62688;59.904;10.738;2022-09-14T03:49:23;0.95;;;0.25;;
74293;SDS011;62688;59.904;10.738;2022-09-14T03:51:49;0.30;;;0.20;;
74293;SDS011;62688;59.904;10.738;2022-09-14T03:54:15;0.57;;;0.40;;
74293;SDS011;62688;59.904;10.738;2022-09-14T03:56:40;0.60;;;0.30;;
74293;SDS011;62688;59.904;10.738;2022-09-14T03:59:09;1.02;;;0.30;;
74293;SDS011;62688;59.904;10.738;2022-09-14T04:01:35;2.15;;;0.30;;
74293;SDS011;62688;59.904;10.738;2022-09-14T04:04:02;1.48;;;0.68;;
74293;SDS011;62688;59.904;10.738;2022-09-14T04:06:27;3.17;;;0.35;;
74293;SDS011;62688;59.904;10.738;2022-09-14T04:08:53;0.17;;;0.17;;
74293;SDS011;62688;59.904;10.738;2022-09-14T04:11:22;0.52;;;0.20;;
74293;SDS011;62688;59.904;10.738;2022-09-14T04:13:49;0.30;;;0.20;;
74293;SDS011;62688;59.904;10.738;2022-09-14T04:16:16;4.32;;;0.30;;
74293;SDS011;62688;59.904;10.738;2022-09-14T04:18:44;0.50;;;0.25;;
74293;SDS011;62688;59.904;10.738;2022-09-14T04:21:12;0.60;;;0.30;;
74293;SDS011;62688;59.904;10.738;2022-09-14T04:23:40;1.85;;;0.10;;
74293;SDS011;62688;59.904;10.738;2022-09-14T04:26:09;0.20;;;0.20;;
74293;SDS011;62688;59.904;10.738;2022-09-14T04:28:41;0.20;;;0.20;;
74293;SDS011;62688;59.904;10.738;2022-09-14T04:31:07;0.30;;;0.30;;
74293;SDS011;62688;59.904;10.738;2022-09-14T04:33:34;0.22;;;0.20;;
74293;SDS011;62688;59.904;10.738;2022-09-14T04:36:01;0.30;;;0.20;;
74293;SDS011;62688;59.904;10.738;2022-09-14T04:38:35;0.40;;;0.40;;
74293;SDS011;62688;59.904;10.738;2022-09-14T04:41:07;0.30;;;0.30;;
74293;SDS011;62688;59.904;10.738;2022-09-14T04:43:38;1.77;;;0.35;;
74293;SDS011;62688;59.904;10.738;2022-09-14T04:46:05;0.63;;;0.20;;
74293;SDS011;62688;59.904;10.738;2022-09-14T04:48:33;1.17;;;0.70;;
74293;SDS011;62688;59.904;10.738;2022-09-14T04:51:01;0.65;;;0.30;;
74293;SDS011;62688;59.904;10.738;2022-09-14T04:53:31;2.37;;;0.20;;
74293;SDS011;62688;59.904;10.738;2022-09-14T04:56:01;0.30;;;0.05;;
74293;SDS011;62688;59.904;10.738;2022-09-14T04:58:32;0.25;;;0.20;;
74293;SDS011;62688;59.904;10.738;2022-09-14T05:01:02;0.20;;;0.10;;
74293;SDS011;62688;59.904;10.738;2022-09-14T05:03:28;0.30;;;0.30;;
74293;SDS011;62688;59.904;10.738;2022-09-14T05:05:54;1.02;;;0.38;;
74293;SDS011;62688;59.904;10.738;2022-09-14T05:08:20;0.55;;;0.30;;
74293;SDS011;62688;59.904;10.738;2022-09-14T05:10:46;0.82;;;0.28;;
74293;SDS011;62688;59.904;10.738;2022-09-14T05:13:11;0.25;;;0.25;;
74293;SDS011;62688;59.904;10.738;2022-09-14T05:15:38;0.20;;;0.20;;
74293;SDS011;62688;59.904;10.738;2022-09-14T05:18:04;0.15;;;0.15;;
74293;SDS011;62688;59.904;10.738;2022-09-14T05:20:29;0.20;;;0.20;;
74293;SDS011;62688;59.904;10.738;2022-09-14T05:22:55;2.65;;;0.30;;
74293;SDS011;62688;59.904;10.738;2022-09-14T05:25:21;0.52;;;0.30;;
74293;SDS011;62688;59.904;10.738;2022-09-14T05:27:46;0.47;;;0.30;;
74293;SDS011;62688;59.904;10.738;2022-09-14T05:30:12;3.08;;;0.55;;
74293;SDS011;62688;59.904;10.738;2022-09-14T05:32:37;2.83;;;0.50;;
74293;SDS011;62688;59.904;10.738;2022-09-14T05:35:03;4.68;;;1.80;;
74293;SDS011;62688;59.904;10.738;2022-09-14T05:37:29;6.55;;;2.15;;
74293;SDS011;62688;59.904;10.738;2022-09-14T05:39:54;14.10;;;3.92;;
74293;SDS011;62688;59.904;10.738;2022-09-14T05:42:20;10.30;;;4.75;;
74293;SDS011;62688;59.904;10.738;2022-09-14T05:44:45;6.13;;;2.25;;
74293;SDS011;62688;59.904;10.738;2022-09-14T05:47:11;5.20;;;1.58;;
74293;SDS011;62688;59.904;10.738;2022-09-14T05:49:37;3.53;;;1.23;;
74293;SDS011;62688;59.904;10.738;2022-09-14T05:52:02;4.50;;;1.50;;
74293;SDS011;62688;59.904;10.738;2022-09-14T05:54:28;5.40;;;1.80;;
74293;SDS011;62688;59.904;10.738;2022-09-14T05:56:53;3.03;;;1.15;;
74293;SDS011;62688;59.904;10.738;2022-09-14T05:59:19;2.10;;;0.80;;
74293;SDS011;62688;59.904;10.738;2022-09-14T06:01:45;2.15;;;0.77;;
74293;SDS011;62688;59.904;10.738;2022-09-14T06:04:10;1.98;;;0.60;;
74293;SDS011;62688;59.904;10.738;2022-09-14T06:06:36;1.95;;;0.57;;
74293;SDS011;62688;59.904;10.738;2022-09-14T06:09:02;1.15;;;0.75;;
74293;SDS011;62688;59.904;10.738;2022-09-14T06:11:29;1.42;;;0.63;;
74293;SDS011;62688;59.904;10.738;2022-09-14T06:13:57;2.05;;;0.65;;
74293;SDS011;62688;59.904;10.738;2022-09-14T06:16:23;1.75;;;0.68;;
74293;SDS011;62688;59.904;10.738;2022-09-14T06:18:51;1.92;;;0.40;;
74293;SDS011;62688;59.904;10.738;2022-09-14T06:21:19;2.63;;;0.88;;
74293;SDS011;62688;59.904;10.738;2022-09-14T06:23:46;5.57;;;1.48;;
74293;SDS011;62688;59.904;10.738;2022-09-14T06:26:13;7.10;;;0.98;;
74293;SDS011;62688;59.904;10.738;2022-09-14T06:28:39;1.00;;;0.60;;
74293;SDS011;62688;59.904;10.738;2022-09-14T06:31:05;1.05;;;0.30;;
74293;SDS011;62688;59.904;10.738;2022-09-14T06:33:32;0.90;;;0.47;;
74293;SDS011;62688;59.904;10.738;2022-09-14T06:38:33;3.65;;;0.50;;
74293;SDS011;62688;59.904;10.738;2022-09-14T06:41:01;2.83;;;0.50;;
74293;SDS011;62688;59.904;10.738;2022-09-14T06:43:29;2.03;;;0.50;;
74293;SDS011;62688;59.904;10.738;2022-09-14T06:46:06;2.88;;;0.70;;
74293;SDS011;62688;59.904;10.738;2022-09-14T06:48:39;0.82;;;0.40;;
74293;SDS011;62688;59.904;10.738;2022-09-14T06:51:11;1.17;;;0.30;;
74293;SDS011;62688;59.904;10.738;2022-09-14T06:53:40;2.72;;;0.52;;
74293;SDS011;62688;59.904;10.738;2022-09-14T06:56:06;4.45;;;0.73;;
74293;SDS011;62688;59.904;10.738;2022-09-14T06:58:32;2.55;;;0.90;;
74293;SDS011;62688;59.904;10.738;2022-09-14T07:01:02;13.80;;;2.03;;
74293;SDS011;62688;59.904;10.738;2022-09-14T07:03:29;20.92;;;2.70;;
74293;SDS011;62688;59.904;10.738;2022-09-14T07:06:03;9.43;;;1.10;;
74293;SDS011;62688;59.904;10.738;2022-09-14T07:08:34;4.55;;;1.10;;
74293;SDS011;62688;59.904;10.738;2022-09-14T07:11:01;1.20;;;0.50;;
74293;SDS011;62688;59.904;10.738;2022-09-14T07:13:28;12.30;;;1.60;;
74293;SDS011;62688;59.904;10.738;2022-09-14T07:15:54;4.97;;;0.80;;
74293;SDS011;62688;59.904;10.738;2022-09-14T07:18:20;3.85;;;0.70;;
74293;SDS011;62688;59.904;10.738;2022-09-14T07:20:47;1.90;;;0.88;;
74293;SDS011;62688;59.904;10.738;2022-09-14T07:23:13;5.07;;;0.63;;
74293;SDS011;62688;59.904;10.738;2022-09-14T07:25:39;5.10;;;0.63;;
74293;SDS011;62688;59.904;10.738;2022-09-14T07:28:05;2.42;;;0.60;;
74293;SDS011;62688;59.904;10.738;2022-09-14T07:30:33;1.50;;;0.47;;
74293;SDS011;62688;59.904;10.738;2022-09-14T07:33:00;2.30;;;0.50;;
74293;SDS011;62688;59.904;10.738;2022-09-14T07:35:25;2.83;;;0.60;;
74293;SDS011;62688;59.904;10.738;2022-09-14T07:37:52;21.55;;;3.38;;
74293;SDS011;62688;59.904;10.738;2022-09-14T07:40:18;1.75;;;0.40;;
74293;SDS011;62688;59.904;10.738;2022-09-14T07:42:50;4.68;;;0.70;;
74293;SDS011;62688;59.904;10.738;2022-09-14T07:45:19;4.70;;;0.70;;
74293;SDS011;62688;59.904;10.738;2022-09-14T07:47:45;6.43;;;1.35;;
74293;SDS011;62688;59.904;10.738;2022-09-14T07:50:11;15.52;;;1.40;;
74293;SDS011;62688;59.904;10.738;2022-09-14T07:52:37;12.00;;;1.50;;
74293;SDS011;62688;59.904;10.738;2022-09-14T07:55:04;11.93;;;2.08;;
74293;SDS011;62688;59.904;10.738;2022-09-14T07:57:30;21.92;;;2.95;;
74293;SDS011;62688;59.904;10.738;2022-09-14T07:59:55;15.27;;;2.45;;
74293;SDS011;62688;59.904;10.738;2022-09-14T08:02:22;1.90;;;0.65;;
74293;SDS011;62688;59.904;10.738;2022-09-14T08:04:48;1.35;;;0.55;;
74293;SDS011;62688;59.904;10.738;2022-09-14T08:07:16;1.77;;;0.45;;
74293;SDS011;62688;59.904;10.738;2022-09-14T08:09:42;1.20;;;0.75;;
74293;SDS011;62688;59.904;10.738;2022-09-14T08:12:09;0.30;;;0.30;;
74293;SDS011;62688;59.904;10.738;2022-09-14T08:14:35;0.82;;;0.40;;
74293;SDS011;62688;59.904;10.738;2022-09-14T08:17:01;1.17;;;0.40;;
74293;SDS011;62688;59.904;10.738;2022-09-14T08:19:26;1.63;;;0.40;;
74293;SDS011;62688;59.904;10.738;2022-09-14T08:21:52;8.23;;;0.50;;
74293;SDS011;62688;59.904;10.738;2022-09-14T08:24:18;1.23;;;0.70;;
74293;SDS011;62688;59.904;10.738;2022-09-14T08:26:45;2.95;;;0.40;;
74293;SDS011;62688;59.904;10.738;2022-09-14T08:29:12;1.55;;;0.82;;
74293;SDS011;62688;59.904;10.738;2022-09-14T08:31:38;2.17;;;0.50;;
74293;SDS011;62688;59.904;10.738;2022-09-14T08:34:05;0.80;;;0.38;;
74293;SDS011;62688;59.904;10.738;2022-09-14T08:36:35;1.80;;;0.50;;
74293;SDS011;62688;59.904;10.738;2022-09-14T08:39:02;1.05;;;0.70;;
74293;SDS011;62688;59.904;10.738;2022-09-14T08:50:02;5.03;;;0.40;;
74293;SDS011;62688;59.904;10.738;2022-09-14T08:52:41;2.25;;;0.60;;
74293;SDS011;62688;59.904;10.738;2022-09-14T09:06:21;2.25;;;0.13;;
74293;SDS011;62688;59.904;10.738;2022-09-14T09:11:40;2.22;;;0.47;;
74293;SDS011;62688;59.904;10.738;2022-09-14T09:14:19;0.52;;;0.28;;
74293;SDS011;62688;59.904;10.738;2022-09-14T09:16:50;1.05;;;0.40;;
74293;SDS011;62688;59.904;10.738;2022-09-14T09:19:22;0.57;;;0.40;;
74293;SDS011;62688;59.904;10.738;2022-09-14T09:21:51;3.17;;;0.38;;
74293;SDS011;62688;59.904;10.738;2022-09-14T09:26:42;0.20;;;0.20;;
74293;SDS011;62688;59.904;10.738;2022-09-14T09:29:08;3.33;;;0.30;;
74293;SDS011;62688;59.904;10.738;2022-09-14T09:31:37;2.38;;;0.30;;
74293;SDS011;62688;59.904;10.738;2022-09-14T09:34:06;2.10;;;0.50;;
74293;SDS011;62688;59.904;10.738;2022-09-14T09:36:37;1.77;;;0.60;;
74293;SDS011;62688;59.904;10.738;2022-09-14T09:39:06;0.60;;;0.20;;
74293;SDS011;62688;59.904;10.738;2022-09-14T09:41:42;1.50;;;0.20;;
74293;SDS011;62688;59.904;10.738;2022-09-14T09:44:12;0.28;;;0.17;;
74293;SDS011;62688;59.904;10.738;2022-09-14T09:46:43;1.02;;;0.10;;
74293;SDS011;62688;59.904;10.738;2022-09-14T09:49:57;0.85;;;0.30;;
74293;SDS011;62688;59.904;10.738;2022-09-14T09:54:38;0.52;;;0.10;;
74293;SDS011;62688;59.904;10.738;2022-09-14T09:57:06;0.20;;;0.20;;
74293;SDS011;62688;59.904;10.738;2022-09-14T09:59:45;0.43;;;0.20;;
74293;SDS011;62688;59.904;10.738;2022-09-14T10:02:18;2.30;;;0.30;;
74293;SDS011;62688;59.904;10.738;2022-09-14T10:07:57;0.30;;;0.20;;
74293;SDS011;62688;59.904;10.738;2022-09-14T10:13:00;0.55;;;0.25;;
74293;SDS011;62688;59.904;10.738;2022-09-14T10:15:31;0.10;;;0.10;;
74293;SDS011;62688;59.904;10.738;2022-09-14T10:20:39;1.00;;;0.20;;
74293;SDS011;62688;59.904;10.738;2022-09-14T10:25:41;1.77;;;0.40;;
74293;SDS011;62688;59.904;10.738;2022-09-14T10:28:17;2.45;;;0.40;;
74293;SDS011;62688;59.904;10.738;2022-09-14T10:31:12;0.30;;;0.20;;
74293;SDS011;62688;59.904;10.738;2022-09-14T10:33:38;1.45;;;0.40;;
74293;SDS011;62688;59.904;10.738;2022-09-14T10:41:37;1.90;;;0.20;;
74293;SDS011;62688;59.904;10.738;2022-09-14T10:58:00;0.43;;;0.38;;
74293;SDS011;62688;59.904;10.738;2022-09-14T11:14:47;2.58;;;1.05;;
74293;SDS011;62688;59.904;10.738;2022-09-14T11:17:26;1.77;;;0.50;;
74293;SDS011;62688;59.904;10.738;2022-09-14T11:22:48;0.50;;;0.50;;
74293;SDS011;62688;59.904;10.738;2022-09-14T11:28:19;0.93;;;0.35;;
74293;SDS011;62688;59.904;10.738;2022-09-14T11:33:41;0.57;;;0.20;;
74293;SDS011;62688;59.904;10.738;2022-09-14T11:36:16;1.38;;;0.30;;
74293;SDS011;62688;59.904;10.738;2022-09-14T11:38:53;0.60;;;0.45;;
74293;SDS011;62688;59.904;10.738;2022-09-14T11:41:45;0.55;;;0.20;;
74293;SDS011;62688;59.904;10.738;2022-09-14T11:44:18;0.73;;;0.20;;
74293;SDS011;62688;59.904;10.738;2022-09-14T11:46:52;0.50;;;0.30;;
74293;SDS011;62688;59.904;10.738;2022-09-14T11:49:30;1.08;;;0.30;;
74293;SDS011;62688;59.904;10.738;2022-09-14T11:54:38;0.85;;;0.30;;
74293;SDS011;62688;59.904;10.738;2022-09-14T11:57:04;0.20;;;0.13;;
74293;SDS011;62688;59.904;10.738;2022-09-14T11:59:36;0.55;;;0.28;;
74293;SDS011;62688;59.904;10.738;2022-09-14T12:02:42;3.67;;;0.35;;
74293;SDS011;62688;59.904;10.738;2022-09-14T12:15:13;0.55;;;0.10;;
74293;SDS011;62688;59.904;10.738;2022-09-14T12:20:37;2.42;;;1.33;;
74293;SDS011;62688;59.904;10.738;2022-09-14T12:25:36;1.08;;;0.10;;
74293;SDS011;62688;59.904;10.738;2022-09-14T12:28:19;1.33;;;0.20;;
74293;SDS011;62688;59.904;10.738;2022-09-14T12:40:55;0.03;;;0.03;;
74293;SDS011;62688;59.904;10.738;2022-09-14T12:51:41;0.10;;;0.10;;
74293;SDS011;62688;59.904;10.738;2022-09-14T13:05:25;0.00;;;0.00;;
74293;SDS011;62688;59.904;10.738;2022-09-14T13:07:54;0.13;;;0.13;;
74293;SDS011;62688;59.904;10.738;2022-09-14T13:10:25;0.10;;;0.10;;
74293;SDS011;62688;59.904;10.738;2022-09-14T13:12:53;0.20;;;0.10;;
74293;SDS011;62688;59.904;10.738;2022-09-14T13:17:58;0.00;;;0.00;;
74293;SDS011;62688;59.904;10.738;2022-09-14T13:20:36;0.13;;;0.10;;
74293;SDS011;62688;59.904;10.738;2022-09-14T13:23:02;0.17;;;0.15;;
74293;SDS011;62688;59.904;10.738;2022-09-14T13:25:34;0.00;;;0.00;;
74293;SDS011;62688;59.904;10.738;2022-09-14T13:28:05;0.55;;;0.00;;
74293;SDS011;62688;59.904;10.738;2022-09-14T13:30:39;3.85;;;0.65;;
74293;SDS011;62688;59.904;10.738;2022-09-14T13:33:15;0.57;;;0.00;;
74293;SDS011;62688;59.904;10.738;2022-09-14T13:35:45;0.52;;;0.00;;
74293;SDS011;62688;59.904;10.738;2022-09-14T13:38:17;1.38;;;0.10;;
74293;SDS011;62688;59.904;10.738;2022-09-14T13:40:48;0.70;;;0.20;;
74293;SDS011;62688;59.904;10.738;2022-09-14T13:43:16;0.10;;;0.10;;
74293;SDS011;62688;59.904;10.738;2022-09-14T13:45:43;1.33;;;0.15;;
74293;SDS011;62688;59.904;10.738;2022-09-14T13:48:10;0.35;;;0.10;;
74293;SDS011;62688;59.904;10.738;2022-09-14T13:50:38;0.00;;;0.00;;
74293;SDS011;62688;59.904;10.738;2022-09-14T13:53:34;0.10;;;0.10;;
74293;SDS011;62688;59.904;10.738;2022-09-14T14:02:02;0.00;;;0.00;;
74293;SDS011;62688;59.904;10.738;2022-09-14T14:04:32;0.32;;;0.13;;
74293;SDS011;62688;59.904;10.738;2022-09-14T14:07:16;0.95;;;0.10;;
74293;SDS011;62688;59.904;10.738;2022-09-14T14:09:51;0.73;;;0.10;;
74293;SDS011;62688;59.904;10.738;2022-09-14T14:14:51;0.00;;;0.00;;
74293;SDS011;62688;59.904;10.738;2022-09-14T14:19:54;0.32;;;0.05;;
74293;SDS011;62688;59.904;10.738;2022-09-14T14:22:25;0.20;;;0.10;;
74293;SDS011;62688;59.904;10.738;2022-09-14T14:24:53;0.35;;;0.00;;
74293;SDS011;62688;59.904;10.738;2022-09-14T14:27:41;0.73;;;0.10;;
74293;SDS011;62688;59.904;10.738;2022-09-14T14:32:40;0.30;;;0.10;;
74293;SDS011;62688;59.904;10.738;2022-09-14T14:35:07;3.03;;;0.65;;
74293;SDS011;62688;59.904;10.738;2022-09-14T14:37:39;0.20;;;0.20;;
74293;SDS011;62688;59.904;10.738;2022-09-14T14:40:05;0.95;;;0.30;;
74293;SDS011;62688;59.904;10.738;2022-09-14T14:42:31;0.10;;;0.10;;
74293;SDS011;62688;59.904;10.738;2022-09-14T14:44:57;0.10;;;0.10;;
74293;SDS011;62688;59.904;10.738;2022-09-14T14:47:24;0.52;;;0.10;;
74293;SDS011;62688;59.904;10.738;2022-09-14T14:49:51;0.65;;;0.17;;
74293;SDS011;62688;59.904;10.738;2022-09-14T14:52:17;0.30;;;0.20;;
74293;SDS011;62688;59.904;10.738;2022-09-14T14:54:43;0.30;;;0.20;;
74293;SDS011;62688;59.904;10.738;2022-09-14T14:57:09;1.85;;;0.30;;
74293;SDS011;62688;59.904;10.738;2022-09-14T14:59:35;0.30;;;0.22;;
74293;SDS011;62688;59.904;10.738;2022-09-14T15:02:00;0.22;;;0.22;;
74293;SDS011;62688;59.904;10.738;2022-09-14T15:04:26;0.65;;;0.20;;
74293;SDS011;62688;59.904;10.738;2022-09-14T15:06:52;0.77;;;0.30;;
74293;SDS011;62688;59.904;10.738;2022-09-14T15:09:19;0.20;;;0.20;;
74293;SDS011;62688;59.904;10.738;2022-09-14T15:11:45;0.20;;;0.13;;
74293;SDS011;62688;59.904;10.738;2022-09-14T15:14:12;0.50;;;0.50;;
74293;SDS011;62688;59.904;10.738;2022-09-14T15:16:39;0.50;;;0.50;;
74293;SDS011;62688;59.904;10.738;2022-09-14T15:19:05;0.95;;;0.85;;
74293;SDS011;62688;59.904;10.738;2022-09-14T15:21:31;1.13;;;0.90;;
74293;SDS011;62688;59.904;10.738;2022-09-14T15:23:57;1.08;;;0.60;;
74293;SDS011;62688;59.904;10.738;2022-09-14T15:26:23;0.82;;;0.77;;
74293;SDS011;62688;59.904;10.738;2022-09-14T15:28:49;1.05;;;0.80;;
74293;SDS011;62688;59.904;10.738;2022-09-14T15:31:16;1.02;;;0.68;;
74293;SDS011;62688;59.904;10.738;2022-09-14T15:33:42;0.63;;;0.60;;
74293;SDS011;62688;59.904;10.738;2022-09-14T15:36:07;1.83;;;0.90;;
74293;SDS011;62688;59.904;10.738;2022-09-14T15:38:33;1.13;;;0.90;;
74293;SDS011;62688;59.904;10.738;2022-09-14T15:40:58;1.55;;;1.20;;
74293;SDS011;62688;59.904;10.738;2022-09-14T15:43:24;5.35;;;1.20;;
74293;SDS011;62688;59.904;10.738;2022-09-14T15:45:50;0.95;;;0.60;;
74293;SDS011;62688;59.904;10.738;2022-09-14T15:48:16;1.83;;;0.75;;
74293;SDS011;62688;59.904;10.738;2022-09-14T15:50:43;1.30;;;0.90;;
74293;SDS011;62688;59.904;10.738;2022-09-14T15:53:10;0.93;;;0.63;;
74293;SDS011;62688;59.904;10.738;2022-09-14T15:55:39;1.10;;;0.88;;
74293;SDS011;62688;59.904;10.738;2022-09-14T15:58:07;2.45;;;0.80;;
74293;SDS011;62688;59.904;10.738;2022-09-14T16:00:33;3.28;;;0.88;;
74293;SDS011;62688;59.904;10.738;2022-09-14T16:03:00;1.20;;;0.95;;
74293;SDS011;62688;59.904;10.738;2022-09-14T16:05:25;3.80;;;0.80;;
74293;SDS011;62688;59.904;10.738;2022-09-14T16:07:52;2.80;;;1.15;;
74293;SDS011;62688;59.904;10.738;2022-09-14T16:10:18;1.77;;;1.20;;
74293;SDS011;62688;59.904;10.738;2022-09-14T16:12:44;1.45;;;0.70;;
74293;SDS011;62688;59.904;10.738;2022-09-14T16:15:09;3.53;;;0.60;;
74293;SDS011;62688;59.904;10.738;2022-09-14T16:17:35;6.15;;;2.60;;
74293;SDS011;62688;59.904;10.738;2022-09-14T16:20:02;6.55;;;1.50;;
74293;SDS011;62688;59.904;10.738;2022-09-14T16:22:28;2.63;;;0.82;;
74293;SDS011;62688;59.904;10.738;2022-09-14T16:24:55;2.42;;;0.85;;
74293;SDS011;62688;59.904;10.738;2022-09-14T16:27:20;1.15;;;0.70;;
74293;SDS011;62688;59.904;10.738;2022-09-14T16:29:46;1.33;;;0.68;;
74293;SDS011;62688;59.904;10.738;2022-09-14T16:32:12;3.03;;;0.68;;
74293;SDS011;62688;59.904;10.738;2022-09-14T16:34:37;5.20;;;0.57;;
74293;SDS011;62688;59.904;10.738;2022-09-14T16:37:03;0.70;;;0.60;;
74293;SDS011;62688;59.904;10.738;2022-09-14T16:39:29;0.60;;;0.57;;
74293;SDS011;62688;59.904;10.738;2022-09-14T16:41:55;0.60;;;0.32;;
74293;SDS011;62688;59.904;10.738;2022-09-14T16:44:22;1.15;;;0.60;;
74293;SDS011;62688;59.904;10.738;2022-09-14T16:46:50;0.57;;;0.30;;
74293;SDS011;62688;59.904;10.738;2022-09-14T16:49:17;0.63;;;0.52;;
74293;SDS011;62688;59.904;10.738;2022-09-14T16:51:43;1.30;;;0.40;;
74293;SDS011;62688;59.904;10.738;2022-09-14T16:54:09;0.70;;;0.32;;
74293;SDS011;62688;59.904;10.738;2022-09-14T16:56:39;1.33;;;0.50;;
74293;SDS011;62688;59.904;10.738;2022-09-14T16:59:05;0.60;;;0.40;;
74293;SDS011;62688;59.904;10.738;2022-09-14T17:01:35;1.50;;;0.90;;
74293;SDS011;62688;59.904;10.738;2022-09-14T17:06:32;1.13;;;0.50;;
74293;SDS011;62688;59.904;10.738;2022-09-14T17:09:00;2.33;;;0.75;;
74293;SDS011;62688;59.904;10.738;2022-09-14T17:11:29;0.73;;;0.70;;
74293;SDS011;62688;59.904;10.738;2022-09-14T17:13:55;4.97;;;0.63;;
74293;SDS011;62688;59.904;10.738;2022-09-14T17:16:22;1.13;;;0.82;;
74293;SDS011;62688;59.904;10.738;2022-09-14T17:18:50;1.80;;;0.70;;
74293;SDS011;62688;59.904;10.738;2022-09-14T17:21:18;0.75;;;0.60;;
74293;SDS011;62688;59.904;10.738;2022-09-14T17:23:46;1.30;;;0.80;;
74293;SDS011;62688;59.904;10.738;2022-09-14T17:26:13;1.48;;;1.00;;
74293;SDS011;62688;59.904;10.738;2022-09-14T17:28:42;1.83;;;1.48;;
74293;SDS011;62688;59.904;10.738;2022-09-14T17:31:09;3.15;;;1.33;;
74293;SDS011;62688;59.904;10.738;2022-09-14T17:33:37;2.20;;;1.10;;
74293;SDS011;62688;59.904;10.738;2022-09-14T17:36:03;2.42;;;1.10;;
74293;SDS011;62688;59.904;10.738;2022-09-14T17:38:37;0.93;;;0.90;;
74293;SDS011;62688;59.904;10.738;2022-09-14T17:41:05;0.77;;;0.77;;
74293;SDS011;62688;59.904;10.738;2022-09-14T17:43:36;0.82;;;0.75;;
74293;SDS011;62688;59.904;10.738;2022-09-14T17:46:03;0.70;;;0.70;;
74293;SDS011;62688;59.904;10.738;2022-09-14T17:48:30;1.40;;;0.73;;
74293;SDS011;62688;59.904;10.738;2022-09-14T17:50:58;1.85;;;1.17;;